createdAt,value
2022-12-25T00:00:55.798Z,65.89
2022-12-25T00:01:55.783Z,65.78
2022-12-25T00:02:55.794Z,65.78
2022-12-25T00:03:55.772Z,65.89
2022-12-25T00:04:55.631Z,65.89
2022-12-25T00:05:55.642Z,65.89
2022-12-25T00:06:55.598Z,65.78
2022-12-25T00:07:55.663Z,65.69
2022-12-25T00:08:55.596Z,65.69
2022-12-25T00:09:55.781Z,65.59
2022-12-25T00:10:55.574Z,65.69
2022-12-25T00:11:55.598Z,65.69
2022-12-25T00:12:55.545Z,65.69
2022-12-25T00:13:55.596Z,65.69
2022-12-25T00:14:55.743Z,65.69
2022-12-25T00:15:55.550Z,65.78
2022-12-25T00:16:55.518Z,65.69
2022-12-25T00:17:55.515Z,65.69
2022-12-25T00:18:55.507Z,65.69
2022-12-25T00:19:55.628Z,65.69
2022-12-25T00:20:55.456Z,65.69
2022-12-25T00:21:55.479Z,65.69
2022-12-25T00:22:55.498Z,65.69
2022-12-25T00:23:55.458Z,65.59
2022-12-25T00:24:55.573Z,65.69
2022-12-25T00:25:55.445Z,65.59
2022-12-25T00:26:55.440Z,65.69
2022-12-25T00:27:55.409Z,65.69
2022-12-25T00:28:55.402Z,65.69
2022-12-25T00:29:55.490Z,65.78
2022-12-25T00:30:55.424Z,65.78
2022-12-25T00:31:55.483Z,65.69
2022-12-25T00:32:55.344Z,65.69
2022-12-25T00:33:55.347Z,65.69
2022-12-25T00:34:55.337Z,65.69
2022-12-25T00:35:55.325Z,65.69
2022-12-25T00:36:55.369Z,65.59
2022-12-25T00:37:55.294Z,65.48
2022-12-25T00:38:55.278Z,65.59
2022-12-25T00:39:55.273Z,65.59
2022-12-25T00:40:55.260Z,65.69
2022-12-25T00:41:55.256Z,65.69
2022-12-25T00:42:55.250Z,65.78
2022-12-25T00:43:55.263Z,65.69
2022-12-25T00:44:55.291Z,65.69
2022-12-25T00:45:55.363Z,65.69
2022-12-25T00:46:55.249Z,65.69
2022-12-25T00:47:55.238Z,65.69
2022-12-25T00:48:55.163Z,65.69
2022-12-25T00:49:55.314Z,65.69
2022-12-25T00:50:55.119Z,65.78
2022-12-25T00:51:55.093Z,65.69
2022-12-25T00:52:55.289Z,65.78
2022-12-25T00:53:55.219Z,65.89
2022-12-25T00:54:55.102Z,66.09
2022-12-25T00:55:55.080Z,66.28
2022-12-25T00:56:55.075Z,66.39
2022-12-25T00:57:55.038Z,66.49
2022-12-25T00:58:55.010Z,66.39
2022-12-25T00:59:55.019Z,66.39
2022-12-25T01:00:55.126Z,66.28
2022-12-25T01:01:55.266Z,66.28
2022-12-25T01:02:55.156Z,66.28
2022-12-25T01:03:54.976Z,66.19
2022-12-25T01:04:54.981Z,66.09
2022-12-25T01:05:54.956Z,66.09
2022-12-25T01:06:54.975Z,66.09
2022-12-25T01:07:54.956Z,66.09
2022-12-25T01:08:54.969Z,66.78
2022-12-25T01:09:55.156Z,67.09
2022-12-25T01:10:54.953Z,67.19
2022-12-25T01:11:54.963Z,67.19
2022-12-25T01:12:54.920Z,67.29
2022-12-25T01:13:54.940Z,67.09
2022-12-25T01:14:54.908Z,66.49
2022-12-25T01:15:55.088Z,66.28
2022-12-25T01:16:55.008Z,66.19
2022-12-25T01:17:54.879Z,66.19
2022-12-25T01:18:54.905Z,66.28
2022-12-25T01:19:55.018Z,66.19
2022-12-25T01:20:54.869Z,66.19
2022-12-25T01:21:54.841Z,66.19
2022-12-25T01:22:54.835Z,66.19
2022-12-25T01:23:54.827Z,66.19
2022-12-25T01:24:54.987Z,66.19
2022-12-25T01:25:54.816Z,66.19
2022-12-25T01:26:54.836Z,66.19
2022-12-25T01:27:54.763Z,66.19
2022-12-25T01:28:54.787Z,66.19
2022-12-25T01:29:54.917Z,66.19
2022-12-25T01:30:54.758Z,66.19
2022-12-25T01:31:54.910Z,66.19
2022-12-25T01:32:54.752Z,66.19
2022-12-25T01:33:54.703Z,66.19
2022-12-25T01:34:56.319Z,66.19
2022-12-25T01:35:54.884Z,66.19
2022-12-25T01:36:54.684Z,66.19
2022-12-25T01:37:54.653Z,66.19
2022-12-25T01:38:54.682Z,66.19
2022-12-25T01:39:54.778Z,66.19
2022-12-25T01:40:54.671Z,66.19
2022-12-25T01:41:54.653Z,66.28
2022-12-25T01:42:54.644Z,66.28
2022-12-25T01:43:54.669Z,66.28
2022-12-25T01:44:54.803Z,66.28
2022-12-25T01:45:54.693Z,66.28
2022-12-25T01:46:54.575Z,66.39
2022-12-25T01:47:54.586Z,66.49
2022-12-25T01:48:54.561Z,66.49
2022-12-25T01:49:54.740Z,66.49
2022-12-25T01:50:54.554Z,66.49
2022-12-25T01:51:54.541Z,66.49
2022-12-25T01:52:54.526Z,66.49
2022-12-25T01:53:54.512Z,66.39
2022-12-25T01:54:54.488Z,66.39
2022-12-25T01:55:54.520Z,66.39
2022-12-25T01:56:54.471Z,66.39
2022-12-25T01:57:54.453Z,66.59
2022-12-25T01:58:54.484Z,66.59
2022-12-25T01:59:54.577Z,66.59
2022-12-25T02:00:54.483Z,66.59
2022-12-25T02:01:54.738Z,66.59
2022-12-25T02:02:54.580Z,66.59
2022-12-25T02:03:54.403Z,66.59
2022-12-25T02:04:54.385Z,66.59
2022-12-25T02:05:54.408Z,66.59
2022-12-25T02:06:54.396Z,66.59
2022-12-25T02:07:54.386Z,66.69
2022-12-25T02:08:54.349Z,66.69
2022-12-25T02:09:54.321Z,66.59
2022-12-25T02:10:54.365Z,66.59
2022-12-25T02:11:54.306Z,66.59
2022-12-25T02:12:54.328Z,66.59
2022-12-25T02:13:54.304Z,66.69
2022-12-25T02:14:57.203Z,66.69
2022-12-25T02:15:54.293Z,66.69
2022-12-25T02:16:56.689Z,66.59
2022-12-25T02:17:54.257Z,66.59
2022-12-25T02:18:54.255Z,66.59
2022-12-25T02:19:54.235Z,66.69
2022-12-25T02:20:54.224Z,66.69
2022-12-25T02:21:54.247Z,66.59
2022-12-25T02:22:54.240Z,66.59
2022-12-25T02:23:54.190Z,66.69
2022-12-25T02:24:54.285Z,66.69
2022-12-25T02:25:54.190Z,66.69
2022-12-25T02:26:54.187Z,66.59
2022-12-25T02:27:54.131Z,66.59
2022-12-25T02:28:54.155Z,66.59
2022-12-25T02:29:54.301Z,66.59
2022-12-25T02:30:54.192Z,66.59
2022-12-25T02:31:54.225Z,66.59
2022-12-25T02:32:54.163Z,66.59
2022-12-25T02:33:54.105Z,66.59
2022-12-25T02:34:54.107Z,66.49
2022-12-25T02:35:54.067Z,66.49
2022-12-25T02:36:54.128Z,66.39
2022-12-25T02:37:54.084Z,66.39
2022-12-25T02:38:54.064Z,66.49
2022-12-25T02:39:54.242Z,66.49
2022-12-25T02:40:54.074Z,66.49
2022-12-25T02:41:54.076Z,66.59
2022-12-25T02:42:54.094Z,66.49
2022-12-25T02:43:54.020Z,66.49
2022-12-25T02:44:53.998Z,66.49
2022-12-25T02:45:53.996Z,66.49
2022-12-25T02:46:53.979Z,66.49
2022-12-25T02:47:53.935Z,66.49
2022-12-25T02:48:53.930Z,66.59
2022-12-25T02:49:53.917Z,66.59
2022-12-25T02:50:53.909Z,66.59
2022-12-25T02:51:53.912Z,66.59
2022-12-25T02:52:53.930Z,66.59
2022-12-25T02:53:53.877Z,66.59
2022-12-25T02:54:53.879Z,66.59
2022-12-25T02:55:53.886Z,66.59
2022-12-25T02:56:53.902Z,66.59
2022-12-25T02:57:53.845Z,66.69
2022-12-25T02:58:53.831Z,66.69
2022-12-25T02:59:53.810Z,66.69
2022-12-25T03:00:53.899Z,66.69
2022-12-25T03:01:53.943Z,66.69
2022-12-25T03:02:53.876Z,66.78
2022-12-25T03:03:53.759Z,66.78
2022-12-25T03:04:53.765Z,66.78
2022-12-25T03:05:53.737Z,66.78
2022-12-25T03:06:53.764Z,66.78
2022-12-25T03:07:53.723Z,66.78
2022-12-25T03:08:53.740Z,66.78
2022-12-25T03:09:53.719Z,66.78
2022-12-25T03:10:53.696Z,66.89
2022-12-25T03:11:53.700Z,66.89
2022-12-25T03:12:53.685Z,66.89
2022-12-25T03:13:53.673Z,66.89
2022-12-25T03:14:53.697Z,66.78
2022-12-25T03:15:53.641Z,66.78
2022-12-25T03:16:53.929Z,66.78
2022-12-25T03:17:53.611Z,66.78
2022-12-25T03:18:53.621Z,66.89
2022-12-25T03:19:53.616Z,66.89
2022-12-25T03:20:53.628Z,66.89
2022-12-25T03:21:53.601Z,66.99
2022-12-25T03:22:53.579Z,66.89
2022-12-25T03:23:53.550Z,66.89
2022-12-25T03:24:53.581Z,66.99
2022-12-25T03:25:53.554Z,66.99
2022-12-25T03:26:53.555Z,66.89
2022-12-25T03:27:53.529Z,66.99
2022-12-25T03:28:53.552Z,66.99
2022-12-25T03:29:53.507Z,66.99
2022-12-25T03:30:53.593Z,67.09
2022-12-25T03:31:53.468Z,66.99
2022-12-25T03:32:53.488Z,67.09
2022-12-25T03:33:53.466Z,67.09
2022-12-25T03:34:53.452Z,67.09
2022-12-25T03:35:53.465Z,67.09
2022-12-25T03:36:53.433Z,67.09
2022-12-25T03:37:53.424Z,66.99
2022-12-25T03:38:53.433Z,66.99
2022-12-25T03:39:53.397Z,67.09
2022-12-25T03:40:53.415Z,66.89
2022-12-25T03:41:53.366Z,66.89
2022-12-25T03:42:53.377Z,66.89
2022-12-25T03:43:53.361Z,66.99
2022-12-25T03:44:53.383Z,66.99
2022-12-25T03:45:53.374Z,66.99
2022-12-25T03:46:53.325Z,66.89
2022-12-25T03:47:53.306Z,66.99
2022-12-25T03:48:53.317Z,66.99
2022-12-25T03:49:53.302Z,66.89
2022-12-25T03:50:53.307Z,66.89
2022-12-25T03:51:53.262Z,66.99
2022-12-25T03:52:53.288Z,66.99
2022-12-25T03:53:53.237Z,66.99
2022-12-25T03:54:53.249Z,66.99
2022-12-25T03:55:53.244Z,66.99
2022-12-25T03:56:53.246Z,66.99
2022-12-25T03:57:53.307Z,67.09
2022-12-25T03:58:53.228Z,66.99
2022-12-25T03:59:53.218Z,66.99
2022-12-25T04:00:53.178Z,67.39
2022-12-25T04:01:53.354Z,67.69
2022-12-25T04:02:53.354Z,67.79
2022-12-25T04:03:53.165Z,67.69
2022-12-25T04:04:53.155Z,67.29
2022-12-25T04:05:53.181Z,67.19
2022-12-25T04:06:53.152Z,67.09
2022-12-25T04:07:53.153Z,66.99
2022-12-25T04:08:53.141Z,66.99
2022-12-25T04:09:53.095Z,66.99
2022-12-25T04:10:53.123Z,66.89
2022-12-25T04:11:57.336Z,66.99
2022-12-25T04:12:53.076Z,66.99
2022-12-25T04:13:53.049Z,67.09
2022-12-25T04:14:53.046Z,67.19
2022-12-25T04:15:53.101Z,67.49
2022-12-25T04:16:53.013Z,67.69
2022-12-25T04:17:52.991Z,67.89
2022-12-25T04:18:53.021Z,68.19
2022-12-25T04:19:52.988Z,67.69
2022-12-25T04:20:52.992Z,67.29
2022-12-25T04:21:52.949Z,67.29
2022-12-25T04:22:52.975Z,67.29
2022-12-25T04:23:52.962Z,67.29
2022-12-25T04:24:52.974Z,67.19
2022-12-25T04:25:52.928Z,67.19
2022-12-25T04:26:52.931Z,67.19
2022-12-25T04:27:52.923Z,67.19
2022-12-25T04:28:52.892Z,67.19
2022-12-25T04:29:52.887Z,67.09
2022-12-25T04:30:52.920Z,67.09
2022-12-25T04:31:52.866Z,66.99
2022-12-25T04:32:52.869Z,66.99
2022-12-25T04:33:52.827Z,66.89
2022-12-25T04:34:52.828Z,66.99
2022-12-25T04:35:52.832Z,67.09
2022-12-25T04:36:52.807Z,67.09
2022-12-25T04:37:52.824Z,67.09
2022-12-25T04:38:52.800Z,67.09
2022-12-25T04:39:52.776Z,67.09
2022-12-25T04:40:52.766Z,67.09
2022-12-25T04:41:52.773Z,67.09
2022-12-25T04:42:52.747Z,67.09
2022-12-25T04:43:52.716Z,67.09
2022-12-25T04:44:52.717Z,67.09
2022-12-25T04:45:52.714Z,67.09
2022-12-25T04:46:52.801Z,67.09
2022-12-25T04:47:52.704Z,67.09
2022-12-25T04:48:52.696Z,67.19
2022-12-25T04:49:52.653Z,67.09
2022-12-25T04:50:52.665Z,67.19
2022-12-25T04:51:52.647Z,67.19
2022-12-25T04:52:52.676Z,67.09
2022-12-25T04:53:52.627Z,67.09
2022-12-25T04:54:52.633Z,67.09
2022-12-25T04:55:52.586Z,67.09
2022-12-25T04:56:52.601Z,67.09
2022-12-25T04:57:52.594Z,67.09
2022-12-25T04:58:52.582Z,67.09
2022-12-25T04:59:52.542Z,67.09
2022-12-25T05:00:52.557Z,67.09
2022-12-25T05:01:52.588Z,67.09
2022-12-25T05:02:52.799Z,67.09
2022-12-25T05:03:52.593Z,67.19
2022-12-25T05:04:52.512Z,67.19
2022-12-25T05:05:52.546Z,67.19
2022-12-25T05:06:52.559Z,67.09
2022-12-25T05:07:52.471Z,66.99
2022-12-25T05:08:52.465Z,66.99
2022-12-25T05:09:52.445Z,66.99
2022-12-25T05:10:52.444Z,67.09
2022-12-25T05:11:52.454Z,67.09
2022-12-25T05:12:52.449Z,66.99
2022-12-25T05:13:52.401Z,67.09
2022-12-25T05:14:52.421Z,67.09
2022-12-25T05:15:52.428Z,67.09
2022-12-25T05:16:52.431Z,67.09
2022-12-25T05:17:52.380Z,66.99
2022-12-25T05:18:52.382Z,66.99
2022-12-25T05:19:52.389Z,66.99
2022-12-25T05:20:52.347Z,66.99
2022-12-25T05:21:52.325Z,66.99
2022-12-25T05:22:52.340Z,66.89
2022-12-25T05:23:52.306Z,67.09
2022-12-25T05:24:52.305Z,66.99
2022-12-25T05:25:52.310Z,66.99
2022-12-25T05:26:52.285Z,66.99
2022-12-25T05:27:54.161Z,66.99
2022-12-25T05:28:52.267Z,66.99
2022-12-25T05:29:52.256Z,66.99
2022-12-25T05:30:52.284Z,66.99
2022-12-25T05:31:52.254Z,67.09
2022-12-25T05:32:52.198Z,67.09
2022-12-25T05:33:52.241Z,66.99
2022-12-25T05:34:52.180Z,66.99
2022-12-25T05:35:52.183Z,66.89
2022-12-25T05:36:52.156Z,66.99
2022-12-25T05:37:52.188Z,67.09
2022-12-25T05:38:52.155Z,67.09
2022-12-25T05:39:52.172Z,66.99
2022-12-25T05:40:52.141Z,66.99
2022-12-25T05:41:52.159Z,67.09
2022-12-25T05:42:52.100Z,67.09
2022-12-25T05:43:52.154Z,67.09
2022-12-25T05:44:52.091Z,67.09
2022-12-25T05:45:52.083Z,67.19
2022-12-25T05:46:52.217Z,67.19
2022-12-25T05:47:52.070Z,67.09
2022-12-25T05:48:52.044Z,66.99
2022-12-25T05:49:52.071Z,66.99
2022-12-25T05:50:52.012Z,66.99
2022-12-25T05:51:52.020Z,66.99
2022-12-25T05:52:52.003Z,66.99
2022-12-25T05:53:52.030Z,66.99
2022-12-25T05:54:51.974Z,67.09
2022-12-25T05:55:52.004Z,67.19
2022-12-25T05:56:51.992Z,67.19
2022-12-25T05:57:51.998Z,67.19
2022-12-25T05:58:51.945Z,67.59
2022-12-25T05:59:51.970Z,67.89
2022-12-25T06:00:51.958Z,68.19
2022-12-25T06:01:52.010Z,68.09
2022-12-25T06:02:52.006Z,68.29
2022-12-25T06:03:52.010Z,68.16
2022-12-25T06:04:51.906Z,68.16
2022-12-25T06:05:51.903Z,68.26
2022-12-25T06:06:51.899Z,67.86
2022-12-25T06:07:51.899Z,68.19
2022-12-25T06:08:51.824Z,68.26
2022-12-25T06:09:51.850Z,68.36
2022-12-25T06:10:51.817Z,68.49
2022-12-25T06:11:51.858Z,68.46
2022-12-25T06:12:51.814Z,68.66
2022-12-25T06:13:51.804Z,68.66
2022-12-25T06:14:51.777Z,68.66
2022-12-25T06:15:51.816Z,68.55
2022-12-25T06:16:51.808Z,68.66
2022-12-25T06:17:51.760Z,68.55
2022-12-25T06:18:51.726Z,68.49
2022-12-25T06:19:51.743Z,68.46
2022-12-25T06:20:51.709Z,68.46
2022-12-25T06:21:51.753Z,68.29
2022-12-25T06:22:51.692Z,68.39
2022-12-25T06:23:51.842Z,68.49
2022-12-25T06:24:51.659Z,68.69
2022-12-25T06:25:51.673Z,68.59
2022-12-25T06:26:51.675Z,68.39
2022-12-25T06:27:51.655Z,68.59
2022-12-25T06:28:51.652Z,68.69
2022-12-25T06:29:51.629Z,68.49
2022-12-25T06:30:51.635Z,68.39
2022-12-25T06:31:51.622Z,68.39
2022-12-25T06:32:51.573Z,68.59
2022-12-25T06:33:51.612Z,68.69
2022-12-25T06:34:51.579Z,68.79
2022-12-25T06:35:51.581Z,68.69
2022-12-25T06:36:51.549Z,68.69
2022-12-25T06:37:51.555Z,68.59
2022-12-25T06:38:51.542Z,68.49
2022-12-25T06:39:51.545Z,68.59
2022-12-25T06:40:51.490Z,68.59
2022-12-25T06:41:51.505Z,68.59
2022-12-25T06:42:51.467Z,68.49
2022-12-25T06:43:51.549Z,68.49
2022-12-25T06:44:51.464Z,68.59
2022-12-25T06:45:51.537Z,68.49
2022-12-25T06:46:51.444Z,68.99
2022-12-25T06:47:51.439Z,69.19
2022-12-25T06:48:51.429Z,68.99
2022-12-25T06:49:51.466Z,68.66
2022-12-25T06:50:51.409Z,68.55
2022-12-25T06:51:51.433Z,68.86
2022-12-25T06:52:51.372Z,68.86
2022-12-25T06:53:51.401Z,68.86
2022-12-25T06:54:51.383Z,68.96
2022-12-25T06:55:51.405Z,68.86
2022-12-25T06:56:51.406Z,68.46
2022-12-25T06:57:51.365Z,68.66
2022-12-25T06:58:51.419Z,68.46
2022-12-25T06:59:55.067Z,68.86
2022-12-25T07:00:51.346Z,68.46
2022-12-25T07:01:51.538Z,68.46
2022-12-25T07:02:51.435Z,68.16
2022-12-25T07:03:51.348Z,68.05
2022-12-25T07:04:51.251Z,67.96
2022-12-25T07:05:51.262Z,67.86
2022-12-25T07:06:51.269Z,67.76
2022-12-25T07:07:51.231Z,67.96
2022-12-25T07:08:51.204Z,67.96
2022-12-25T07:09:51.231Z,67.96
2022-12-25T07:10:51.179Z,68.46
2022-12-25T07:11:51.180Z,68.26
2022-12-25T07:12:51.188Z,68.05
2022-12-25T07:13:51.192Z,68.05
2022-12-25T07:14:51.162Z,67.86
2022-12-25T07:15:51.170Z,67.16
2022-12-25T07:16:51.224Z,66.86
2022-12-25T07:17:51.135Z,66.96
2022-12-25T07:18:51.111Z,66.96
2022-12-25T07:19:51.124Z,67.05
2022-12-25T07:20:51.067Z,66.86
2022-12-25T07:21:51.104Z,66.66
2022-12-25T07:22:51.082Z,67.36
2022-12-25T07:23:51.068Z,67.46
2022-12-25T07:24:51.048Z,67.76
2022-12-25T07:25:51.066Z,67.96
2022-12-25T07:26:51.011Z,67.96
2022-12-25T07:27:51.017Z,68.16
2022-12-25T07:28:51.022Z,68.16
2022-12-25T07:29:51.035Z,68.16
2022-12-25T07:30:50.967Z,68.05
2022-12-25T07:31:51.065Z,68.05
2022-12-25T07:32:50.950Z,68.16
2022-12-25T07:33:50.967Z,68.16
2022-12-25T07:34:50.923Z,68.16
2022-12-25T07:35:50.952Z,68.05
2022-12-25T07:36:50.906Z,67.96
2022-12-25T07:37:50.914Z,68.26
2022-12-25T07:38:50.887Z,68.55
2022-12-25T07:39:50.890Z,68.36
2022-12-25T07:40:50.865Z,68.86
2022-12-25T07:41:50.889Z,68.96
2022-12-25T07:42:50.870Z,68.36
2022-12-25T07:43:50.885Z,68.16
2022-12-25T07:44:50.820Z,68.05
2022-12-25T07:45:50.917Z,67.96
2022-12-25T07:46:50.810Z,68.26
2022-12-25T07:47:52.864Z,68.16
2022-12-25T07:48:50.724Z,68.16
2022-12-25T07:49:50.813Z,68.16
2022-12-25T07:50:50.763Z,67.96
2022-12-25T07:51:50.786Z,68.05
2022-12-25T07:52:50.757Z,67.96
2022-12-25T07:53:50.767Z,67.36
2022-12-25T07:54:50.736Z,66.96
2022-12-25T07:55:50.767Z,67.36
2022-12-25T07:56:50.730Z,67.76
2022-12-25T07:57:50.694Z,67.76
2022-12-25T07:58:50.670Z,67.96
2022-12-25T07:59:50.685Z,67.96
2022-12-25T08:00:50.735Z,67.96
2022-12-25T08:01:51.000Z,68.16
2022-12-25T08:02:50.912Z,68.05
2022-12-25T08:03:50.781Z,68.16
2022-12-25T08:04:50.611Z,68.16
2022-12-25T08:05:50.555Z,68.05
2022-12-25T08:06:50.603Z,67.96
2022-12-25T08:07:56.975Z,68.36
2022-12-25T08:08:50.619Z,68.26
2022-12-25T08:09:50.578Z,68.16
2022-12-25T08:10:50.558Z,68.16
2022-12-25T08:11:50.547Z,68.05
2022-12-25T08:12:50.538Z,68.16
2022-12-25T08:13:50.547Z,67.96
2022-12-25T08:14:50.491Z,68.05
2022-12-25T08:15:50.517Z,67.16
2022-12-25T08:16:50.626Z,66.75
2022-12-25T08:17:50.490Z,66.75
2022-12-25T08:18:50.456Z,66.75
2022-12-25T08:19:50.410Z,67.05
2022-12-25T08:20:50.442Z,66.66
2022-12-25T08:21:50.448Z,66.75
2022-12-25T08:22:50.436Z,66.75
2022-12-25T08:23:50.431Z,66.96
2022-12-25T08:24:50.447Z,67.05
2022-12-25T08:25:50.420Z,66.86
2022-12-25T08:26:50.365Z,66.75
2022-12-25T08:27:50.338Z,66.75
2022-12-25T08:28:50.321Z,66.75
2022-12-25T08:29:50.312Z,66.86
2022-12-25T08:30:50.376Z,66.86
2022-12-25T08:31:50.402Z,66.86
2022-12-25T08:32:50.338Z,66.86
2022-12-25T08:33:50.326Z,66.86
2022-12-25T08:34:50.300Z,66.86
2022-12-25T08:35:50.307Z,66.86
2022-12-25T08:36:50.300Z,66.96
2022-12-25T08:37:50.291Z,66.86
2022-12-25T08:38:50.272Z,66.96
2022-12-25T08:39:50.210Z,67.05
2022-12-25T08:40:50.236Z,66.96
2022-12-25T08:41:50.236Z,67.05
2022-12-25T08:42:50.214Z,66.96
2022-12-25T08:43:50.239Z,66.86
2022-12-25T08:44:50.138Z,66.75
2022-12-25T08:45:50.187Z,66.86
2022-12-25T08:46:50.133Z,66.96
2022-12-25T08:47:50.168Z,66.75
2022-12-25T08:48:50.116Z,66.86
2022-12-25T08:49:50.111Z,66.96
2022-12-25T08:50:50.114Z,66.96
2022-12-25T08:51:50.169Z,66.96
2022-12-25T08:52:50.106Z,66.96
2022-12-25T08:53:50.176Z,66.96
2022-12-25T08:54:50.089Z,66.96
2022-12-25T08:55:50.051Z,66.86
2022-12-25T08:56:50.065Z,66.96
2022-12-25T08:57:50.089Z,66.96
2022-12-25T08:58:50.044Z,66.96
2022-12-25T08:59:50.082Z,66.96
2022-12-25T09:00:50.033Z,66.86
2022-12-25T09:01:50.165Z,66.86
2022-12-25T09:02:50.100Z,66.96
2022-12-25T09:03:50.045Z,67.05
2022-12-25T09:04:49.953Z,67.05
2022-12-25T09:05:49.965Z,67.25
2022-12-25T09:06:49.992Z,67.16
2022-12-25T09:07:49.981Z,67.25
2022-12-25T09:08:50.197Z,67.16
2022-12-25T09:09:49.942Z,67.16
2022-12-25T09:10:49.902Z,67.16
2022-12-25T09:11:49.877Z,67.16
2022-12-25T09:12:49.883Z,67.05
2022-12-25T09:13:49.874Z,67.16
2022-12-25T09:14:49.827Z,67.16
2022-12-25T09:15:49.880Z,67.16
2022-12-25T09:16:49.808Z,67.16
2022-12-25T09:17:49.829Z,67.05
2022-12-25T09:18:49.831Z,67.16
2022-12-25T09:19:49.795Z,67.25
2022-12-25T09:20:49.763Z,67.25
2022-12-25T09:21:49.786Z,67.25
2022-12-25T09:22:49.775Z,67.16
2022-12-25T09:23:49.783Z,67.25
2022-12-25T09:24:49.741Z,67.16
2022-12-25T09:25:49.743Z,67.16
2022-12-25T09:26:49.698Z,67.16
2022-12-25T09:27:49.717Z,67.16
2022-12-25T09:28:52.238Z,67.25
2022-12-25T09:29:49.721Z,67.16
2022-12-25T09:30:49.694Z,67.16
2022-12-25T09:31:49.677Z,67.05
2022-12-25T09:32:49.646Z,66.86
2022-12-25T09:33:49.666Z,67.05
2022-12-25T09:34:49.642Z,67.16
2022-12-25T09:35:49.616Z,67.16
2022-12-25T09:36:49.633Z,67.05
2022-12-25T09:37:49.640Z,67.05
2022-12-25T09:38:49.586Z,67.05
2022-12-25T09:39:49.585Z,67.05
2022-12-25T09:40:49.613Z,67.05
2022-12-25T09:41:49.606Z,67.16
2022-12-25T09:42:49.567Z,67.16
2022-12-25T09:43:49.588Z,67.05
2022-12-25T09:44:49.511Z,67.16
2022-12-25T09:45:49.572Z,67.16
2022-12-25T09:46:49.570Z,67.16
2022-12-25T09:47:49.495Z,67.25
2022-12-25T09:48:49.512Z,67.16
2022-12-25T09:49:49.488Z,67.16
2022-12-25T09:50:49.486Z,67.05
2022-12-25T09:51:49.463Z,67.05
2022-12-25T09:52:49.447Z,67.05
2022-12-25T09:53:49.435Z,67.16
2022-12-25T09:54:49.460Z,67.16
2022-12-25T09:55:49.401Z,67.05
2022-12-25T09:56:49.414Z,67.16
2022-12-25T09:57:49.403Z,67.16
2022-12-25T09:58:49.386Z,67.16
2022-12-25T09:59:49.375Z,67.16
2022-12-25T10:00:49.422Z,67.25
2022-12-25T10:01:49.681Z,67.16
2022-12-25T10:02:49.657Z,67.25
2022-12-25T10:03:49.438Z,67.25
2022-12-25T10:04:49.388Z,67.25
2022-12-25T10:05:49.309Z,67.25
2022-12-25T10:06:49.307Z,67.25
2022-12-25T10:07:49.280Z,67.25
2022-12-25T10:08:49.321Z,67.29
2022-12-25T10:09:49.256Z,67.16
2022-12-25T10:10:49.279Z,67.16
2022-12-25T10:11:49.240Z,67.16
2022-12-25T10:12:49.248Z,67.16
2022-12-25T10:13:49.226Z,67.16
2022-12-25T10:14:49.240Z,67.16
2022-12-25T10:15:49.226Z,67.16
2022-12-25T10:16:49.260Z,67.16
2022-12-25T10:17:49.171Z,67.16
2022-12-25T10:18:49.237Z,67.16
2022-12-25T10:19:49.220Z,67.16
2022-12-25T10:20:49.166Z,67.16
2022-12-25T10:21:49.132Z,67.16
2022-12-25T10:22:49.161Z,67.16
2022-12-25T10:23:49.111Z,67.16
2022-12-25T10:24:49.120Z,67.16
2022-12-25T10:25:49.082Z,67.36
2022-12-25T10:26:49.147Z,67.25
2022-12-25T10:27:49.139Z,67.25
2022-12-25T10:28:49.072Z,67.25
2022-12-25T10:29:49.044Z,67.25
2022-12-25T10:30:49.151Z,67.25
2022-12-25T10:31:49.022Z,67.25
2022-12-25T10:32:49.061Z,67.29
2022-12-25T10:33:49.006Z,67.25
2022-12-25T10:34:49.017Z,67.25
2022-12-25T10:35:48.987Z,67.25
2022-12-25T10:36:48.992Z,67.25
2022-12-25T10:37:49.028Z,67.36
2022-12-25T10:38:49.075Z,67.36
2022-12-25T10:39:48.988Z,67.36
2022-12-25T10:40:48.942Z,67.46
2022-12-25T10:41:48.926Z,67.66
2022-12-25T10:42:48.940Z,67.66
2022-12-25T10:43:48.927Z,67.46
2022-12-25T10:44:49.007Z,67.46
2022-12-25T10:45:48.933Z,67.66
2022-12-25T10:46:49.074Z,67.76
2022-12-25T10:47:54.394Z,67.66
2022-12-25T10:48:48.934Z,67.55
2022-12-25T10:49:48.851Z,67.55
2022-12-25T10:50:48.871Z,67.55
2022-12-25T10:51:48.869Z,67.55
2022-12-25T10:52:48.889Z,67.55
2022-12-25T10:53:48.816Z,67.55
2022-12-25T10:54:48.808Z,67.55
2022-12-25T10:55:48.785Z,67.55
2022-12-25T10:56:48.817Z,67.59
2022-12-25T10:57:48.764Z,67.55
2022-12-25T10:58:48.759Z,67.55
2022-12-25T10:59:48.734Z,67.55
2022-12-25T11:00:48.736Z,67.55
2022-12-25T11:01:52.396Z,67.49
2022-12-25T11:02:48.953Z,67.49
2022-12-25T11:03:48.806Z,67.46
2022-12-25T11:04:48.754Z,67.46
2022-12-25T11:05:48.679Z,67.46
2022-12-25T11:06:48.694Z,67.49
2022-12-25T11:07:48.679Z,67.49
2022-12-25T11:08:48.661Z,67.46
2022-12-25T11:09:48.649Z,67.49
2022-12-25T11:10:48.630Z,67.39
2022-12-25T11:11:48.606Z,67.39
2022-12-25T11:12:48.606Z,67.39
2022-12-25T11:13:48.612Z,67.39
2022-12-25T11:14:48.626Z,67.39
2022-12-25T11:15:48.607Z,67.39
2022-12-25T11:16:48.569Z,67.39
2022-12-25T11:17:48.542Z,67.39
2022-12-25T11:18:48.556Z,67.39
2022-12-25T11:19:48.540Z,67.39
2022-12-25T11:20:48.550Z,67.49
2022-12-25T11:21:48.505Z,67.39
2022-12-25T11:22:48.508Z,67.39
2022-12-25T11:23:48.482Z,67.39
2022-12-25T11:24:48.486Z,67.39
2022-12-25T11:25:48.542Z,67.29
2022-12-25T11:26:48.528Z,67.29
2022-12-25T11:27:51.941Z,67.39
2022-12-25T11:28:48.474Z,67.29
2022-12-25T11:29:48.503Z,67.29
2022-12-25T11:30:48.472Z,67.29
2022-12-25T11:31:48.491Z,67.19
2022-12-25T11:32:48.429Z,67.19
2022-12-25T11:33:48.394Z,67.39
2022-12-25T11:34:48.387Z,67.49
2022-12-25T11:35:48.360Z,67.49
2022-12-25T11:36:48.373Z,67.49
2022-12-25T11:37:48.358Z,67.49
2022-12-25T11:38:48.366Z,67.49
2022-12-25T11:39:48.319Z,67.39
2022-12-25T11:40:48.383Z,67.39
2022-12-25T11:41:48.351Z,67.39
2022-12-25T11:42:48.368Z,67.39
2022-12-25T11:43:48.308Z,67.39
2022-12-25T11:44:48.270Z,67.29
2022-12-25T11:45:48.249Z,67.29
2022-12-25T11:46:48.333Z,67.39
2022-12-25T11:47:48.257Z,67.39
2022-12-25T11:48:48.244Z,67.39
2022-12-25T11:49:50.206Z,67.29
2022-12-25T11:50:48.221Z,67.29
2022-12-25T11:51:48.203Z,67.39
2022-12-25T11:52:48.200Z,67.29
2022-12-25T11:53:48.219Z,67.19
2022-12-25T11:54:48.189Z,67.29
2022-12-25T11:55:48.170Z,67.29
2022-12-25T11:56:48.160Z,67.29
2022-12-25T11:57:48.771Z,67.29
2022-12-25T11:58:48.131Z,67.29
2022-12-25T11:59:48.168Z,67.29
2022-12-25T12:00:48.107Z,67.29
2022-12-25T12:01:48.579Z,67.29
2022-12-25T12:02:48.410Z,67.29
2022-12-25T12:03:48.182Z,67.19
2022-12-25T12:04:49.087Z,67.19
2022-12-25T12:05:48.101Z,67.19
2022-12-25T12:06:48.045Z,67.19
2022-12-25T12:07:48.212Z,67.19
2022-12-25T12:08:48.562Z,67.09
2022-12-25T12:09:49.089Z,67.19
2022-12-25T12:10:47.999Z,67.19
2022-12-25T12:11:48.740Z,67.19
2022-12-25T12:12:49.152Z,67.19
2022-12-25T12:13:48.193Z,67.09
2022-12-25T12:14:48.026Z,67.09
2022-12-25T12:15:48.722Z,66.99
2022-12-25T12:16:48.034Z,66.28
2022-12-25T12:17:47.930Z,65.09
2022-12-25T12:18:50.524Z,64.69
2022-12-25T12:19:48.081Z,64.39
2022-12-25T12:20:47.923Z,63.58
2022-12-25T12:21:47.898Z,63.39
2022-12-25T12:22:48.592Z,63.39
2022-12-25T12:23:47.894Z,63.48
2022-12-25T12:24:47.916Z,63.18
2022-12-25T12:25:49.033Z,63.28
2022-12-25T12:26:48.369Z,63.28
2022-12-25T12:27:47.952Z,63.08
2022-12-25T12:28:48.393Z,62.88
2022-12-25T12:29:47.795Z,62.68
2022-12-25T12:30:47.850Z,62.48
2022-12-25T12:31:47.888Z,62.58
2022-12-25T12:32:47.829Z,62.48
2022-12-25T12:33:47.806Z,62.38
2022-12-25T12:34:47.834Z,61.88
2022-12-25T12:35:47.846Z,61.88
2022-12-25T12:36:48.106Z,62.08
2022-12-25T12:37:47.822Z,62.08
2022-12-25T12:38:47.787Z,62.18
2022-12-25T12:39:47.747Z,61.78
2022-12-25T12:40:47.848Z,62.18
2022-12-25T12:41:47.754Z,61.78
2022-12-25T12:42:47.721Z,61.68
2022-12-25T12:43:47.674Z,61.41
2022-12-25T12:44:47.648Z,61.41
2022-12-25T12:45:47.661Z,61.31
2022-12-25T12:46:47.636Z,61.51
2022-12-25T12:47:47.631Z,61.58
2022-12-25T12:48:47.693Z,61.58
2022-12-25T12:49:47.579Z,61.81
2022-12-25T12:50:47.594Z,62.01
2022-12-25T12:51:47.591Z,62.68
2022-12-25T12:52:47.621Z,63.08